sensor_id;sensor_type;location;lat;lon;timestamp;pressure;altitude;pressure_sealevel;temperature;humidity
44481;BME280;30184;42.018;23.670;2023-03-19T00:01:16;91988.66;;;-1.75;73.78
44481;BME280;30184;42.018;23.670;2023-03-19T00:03:45;91943.47;;;-2.07;74.25
44481;BME280;30184;42.018;23.670;2023-03-19T00:06:18;91982.50;;;-1.79;74.11
44481;BME280;30184;42.018;23.670;2023-03-19T00:08:47;91990.06;;;-1.81;74.46
44481;BME280;30184;42.018;23.670;2023-03-19T00:11:17;91983.53;;;-1.84;74.38
44481;BME280;30184;42.018;23.670;2023-03-19T00:13:47;91987.66;;;-1.86;74.54
44481;BME280;30184;42.018;23.670;2023-03-19T00:16:17;91985.78;;;-1.86;74.61
44481;BME280;30184;42.018;23.670;2023-03-19T00:18:46;91982.34;;;-1.86;74.29
44481;BME280;30184;42.018;23.670;2023-03-19T00:21:16;91968.78;;;-1.97;74.21
44481;BME280;30184;42.018;23.670;2023-03-19T00:23:45;91966.53;;;-1.95;74.37
44481;BME280;30184;42.018;23.670;2023-03-19T00:26:14;91983.00;;;-1.90;74.58
44481;BME280;30184;42.018;23.670;2023-03-19T00:28:44;91978.81;;;-1.91;74.80
44481;BME280;30184;42.018;23.670;2023-03-19T00:31:15;91893.16;;;-2.43;74.99
44481;BME280;30184;42.018;23.670;2023-03-19T00:33:45;91970.72;;;-1.94;75.01
44481;BME280;30184;42.018;23.670;2023-03-19T00:36:15;91821.59;;;-2.95;75.04
44481;BME280;30184;42.018;23.670;2023-03-19T00:38:46;91955.38;;;-2.01;75.06
44481;BME280;30184;42.018;23.670;2023-03-19T00:41:16;91963.13;;;-1.96;75.46
44481;BME280;30184;42.018;23.670;2023-03-19T00:43:51;92032.94;;;-1.99;75.36
44481;BME280;30184;42.018;23.670;2023-03-19T00:46:23;92016.19;;;-1.99;75.43
44481;BME280;30184;42.018;23.670;2023-03-19T00:48:52;91962.25;;;-2.00;75.28
44481;BME280;30184;42.018;23.670;2023-03-19T00:51:22;91961.38;;;-2.04;75.29
44481;BME280;30184;42.018;23.670;2023-03-19T00:53:52;91957.53;;;-2.06;75.48
44481;BME280;30184;42.018;23.670;2023-03-19T00:56:22;91955.97;;;-2.07;75.57
44481;BME280;30184;42.018;23.670;2023-03-19T00:58:51;91945.69;;;-2.09;75.67
44481;BME280;30184;42.018;23.670;2023-03-19T01:01:22;91941.47;;;-2.10;75.54
44481;BME280;30184;42.018;23.670;2023-03-19T01:03:52;91944.13;;;-2.10;75.84
44481;BME280;30184;42.018;23.670;2023-03-19T01:06:22;91948.66;;;-2.10;75.88
44481;BME280;30184;42.018;23.670;2023-03-19T01:08:52;91968.03;;;-2.26;75.91
44481;BME280;30184;42.018;23.670;2023-03-19T01:11:25;91943.28;;;-2.14;75.88
44481;BME280;30184;42.018;23.670;2023-03-19T01:13:54;91922.25;;;-2.19;75.60
44481;BME280;30184;42.018;23.670;2023-03-19T01:16:25;91933.75;;;-2.15;75.27
44481;BME280;30184;42.018;23.670;2023-03-19T01:18:55;91937.97;;;-2.14;75.25
44481;BME280;30184;42.018;23.670;2023-03-19T01:21:25;91907.38;;;-2.51;75.40
44481;BME280;30184;42.018;23.670;2023-03-19T01:23:57;91934.69;;;-2.23;75.53
44481;BME280;30184;42.018;23.670;2023-03-19T01:26:28;91932.22;;;-2.16;75.53
44481;BME280;30184;42.018;23.670;2023-03-19T01:29:10;91937.09;;;-2.18;75.08
44481;BME280;30184;42.018;23.670;2023-03-19T01:31:41;91928.25;;;-2.22;74.49
44481;BME280;30184;42.018;23.670;2023-03-19T01:34:34;91894.78;;;-2.54;74.50
44481;BME280;30184;42.018;23.670;2023-03-19T01:37:12;91932.03;;;-2.23;74.89
44481;BME280;30184;42.018;23.670;2023-03-19T01:39:43;91925.94;;;-2.23;74.27
44481;BME280;30184;42.018;23.670;2023-03-19T01:42:14;91926.72;;;-2.23;74.26
44481;BME280;30184;42.018;23.670;2023-03-19T01:45:32;91918.75;;;-2.23;74.49
44481;BME280;30184;42.018;23.670;2023-03-19T01:48:25;91925.59;;;-2.22;74.59
44481;BME280;30184;42.018;23.670;2023-03-19T01:51:03;91841.19;;;-2.72;74.13
44481;BME280;30184;42.018;23.670;2023-03-19T01:53:48;91924.47;;;-2.21;73.69
44481;BME280;30184;42.018;23.670;2023-03-19T01:56:41;91947.28;;;-2.20;73.78
44481;BME280;30184;42.018;23.670;2023-03-19T01:59:43;91834.22;;;-2.77;74.39
44481;BME280;30184;42.018;23.670;2023-03-19T02:02:26;91922.91;;;-2.22;74.72
44481;BME280;30184;42.018;23.670;2023-03-19T02:05:05;91928.59;;;-2.23;75.13
44481;BME280;30184;42.018;23.670;2023-03-19T02:07:36;91932.72;;;-2.26;75.08
44481;BME280;30184;42.018;23.670;2023-03-19T02:10:09;91858.66;;;-2.71;75.14
44481;BME280;30184;42.018;23.670;2023-03-19T02:12:39;91926.53;;;-2.30;74.76
44481;BME280;30184;42.018;23.670;2023-03-19T02:15:09;91912.34;;;-2.50;74.42
44481;BME280;30184;42.018;23.670;2023-03-19T02:17:39;91932.94;;;-2.31;74.92
44481;BME280;30184;42.018;23.670;2023-03-19T02:20:16;91922.47;;;-2.40;75.07
44481;BME280;30184;42.018;23.670;2023-03-19T02:22:55;91911.34;;;-2.45;75.21
44481;BME280;30184;42.018;23.670;2023-03-19T02:25:33;91945.38;;;-2.35;75.71
44481;BME280;30184;42.018;23.670;2023-03-19T02:28:07;91932.88;;;-2.35;75.71
44481;BME280;30184;42.018;23.670;2023-03-19T02:30:38;91942.63;;;-2.39;76.18
44481;BME280;30184;42.018;23.670;2023-03-19T02:33:11;91944.50;;;-2.39;76.08
44481;BME280;30184;42.018;23.670;2023-03-19T02:35:42;91931.09;;;-2.58;76.16
44481;BME280;30184;42.018;23.670;2023-03-19T02:38:16;91911.69;;;-2.75;76.15
44481;BME280;30184;42.018;23.670;2023-03-19T02:40:51;91946.66;;;-2.45;75.85
44481;BME280;30184;42.018;23.670;2023-03-19T02:43:23;91940.56;;;-2.45;75.87
44481;BME280;30184;42.018;23.670;2023-03-19T02:45:53;91938.56;;;-2.48;76.22
44481;BME280;30184;42.018;23.670;2023-03-19T02:48:23;91937.78;;;-2.49;76.09
44481;BME280;30184;42.018;23.670;2023-03-19T02:50:53;91935.38;;;-2.70;76.16
44481;BME280;30184;42.018;23.670;2023-03-19T02:53:23;91946.66;;;-2.73;76.29
44481;BME280;30184;42.018;23.670;2023-03-19T02:55:53;91943.88;;;-2.48;75.95
44481;BME280;30184;42.018;23.670;2023-03-19T02:58:23;91930.06;;;-2.70;76.14
44481;BME280;30184;42.018;23.670;2023-03-19T03:00:53;91943.47;;;-2.50;76.45
44481;BME280;30184;42.018;23.670;2023-03-19T03:03:23;91925.78;;;-2.58;76.40
44481;BME280;30184;42.018;23.670;2023-03-19T03:05:52;91943.47;;;-2.50;76.51
44481;BME280;30184;42.018;23.670;2023-03-19T03:08:22;91933.97;;;-2.51;76.44
44481;BME280;30184;42.018;23.670;2023-03-19T03:10:51;91931.00;;;-2.62;76.50
44481;BME280;30184;42.018;23.670;2023-03-19T03:13:20;91941.81;;;-2.55;76.51
44481;BME280;30184;42.018;23.670;2023-03-19T03:15:51;91930.75;;;-2.57;76.55
44481;BME280;30184;42.018;23.670;2023-03-19T03:18:21;91937.66;;;-2.68;76.81
44481;BME280;30184;42.018;23.670;2023-03-19T03:20:51;91842.50;;;-3.22;76.65
44481;BME280;30184;42.018;23.670;2023-03-19T03:23:20;91864.72;;;-3.14;76.70
44481;BME280;30184;42.018;23.670;2023-03-19T03:25:50;91751.38;;;-4.09;76.89
44481;BME280;30184;42.018;23.670;2023-03-19T03:28:20;91980.72;;;-2.63;77.13
44481;BME280;30184;42.018;23.670;2023-03-19T03:30:57;91938.53;;;-2.64;76.87
44481;BME280;30184;42.018;23.670;2023-03-19T03:33:26;91948.38;;;-2.65;77.09
44481;BME280;30184;42.018;23.670;2023-03-19T03:35:55;91944.97;;;-2.65;77.03
44481;BME280;30184;42.018;23.670;2023-03-19T03:38:25;91941.88;;;-2.67;77.10
44481;BME280;30184;42.018;23.670;2023-03-19T03:40:56;91946.75;;;-2.69;77.06
44481;BME280;30184;42.018;23.670;2023-03-19T03:43:26;91934.97;;;-2.84;77.05
44481;BME280;30184;42.018;23.670;2023-03-19T03:45:57;91947.44;;;-2.72;77.25
44481;BME280;30184;42.018;23.670;2023-03-19T03:48:26;91942.13;;;-2.72;77.23
44481;BME280;30184;42.018;23.670;2023-03-19T03:50:55;91945.09;;;-2.74;77.30
44481;BME280;30184;42.018;23.670;2023-03-19T03:53:27;91952.63;;;-2.76;77.42
44481;BME280;30184;42.018;23.670;2023-03-19T03:55:57;91820.88;;;-3.64;77.59
44481;BME280;30184;42.018;23.670;2023-03-19T03:58:28;91918.38;;;-3.21;77.07
44481;BME280;30184;42.018;23.670;2023-03-19T04:00:59;91962.81;;;-2.78;77.41
44481;BME280;30184;42.018;23.670;2023-03-19T04:03:31;91961.72;;;-2.77;77.33
44481;BME280;30184;42.018;23.670;2023-03-19T04:06:01;91994.69;;;-2.78;77.27
44481;BME280;30184;42.018;23.670;2023-03-19T04:08:31;91961.72;;;-2.77;77.32
44481;BME280;30184;42.018;23.670;2023-03-19T04:11:05;91870.69;;;-3.57;77.21
44481;BME280;30184;42.018;23.670;2023-03-19T04:13:35;91903.09;;;-3.12;77.29
44481;BME280;30184;42.018;23.670;2023-03-19T04:16:09;91962.06;;;-2.78;77.39
44481;BME280;30184;42.018;23.670;2023-03-19T04:18:38;91956.31;;;-2.80;77.39
44481;BME280;30184;42.018;23.670;2023-03-19T04:21:08;91943.03;;;-2.80;77.46
44481;BME280;30184;42.018;23.670;2023-03-19T04:23:37;91955.22;;;-2.79;77.65
44481;BME280;30184;42.018;23.670;2023-03-19T04:26:07;91954.31;;;-2.83;77.95
44481;BME280;30184;42.018;23.670;2023-03-19T04:28:36;91955.09;;;-2.83;77.71
44481;BME280;30184;42.018;23.670;2023-03-19T04:31:07;91952.44;;;-2.83;77.92
44481;BME280;30184;42.018;23.670;2023-03-19T04:33:42;91958.97;;;-2.80;77.99
44481;BME280;30184;42.018;23.670;2023-03-19T04:36:11;91924.75;;;-3.10;78.00
44481;BME280;30184;42.018;23.670;2023-03-19T04:38:41;91923.75;;;-3.05;77.90
44481;BME280;30184;42.018;23.670;2023-03-19T04:41:10;91969.25;;;-2.79;77.78
44481;BME280;30184;42.018;23.670;2023-03-19T04:43:49;91886.53;;;-3.33;77.92
44481;BME280;30184;42.018;23.670;2023-03-19T04:46:20;91970.69;;;-2.81;78.02
44481;BME280;30184;42.018;23.670;2023-03-19T04:48:49;91976.09;;;-2.78;78.09
44481;BME280;30184;42.018;23.670;2023-03-19T04:51:19;91974.22;;;-2.77;78.19
44481;BME280;30184;42.018;23.670;2023-03-19T04:53:48;91747.00;;;-4.18;77.81
44481;BME280;30184;42.018;23.670;2023-03-19T04:56:18;91984.19;;;-2.74;78.01
44481;BME280;30184;42.018;23.670;2023-03-19T04:58:48;91974.31;;;-2.74;77.86
44481;BME280;30184;42.018;23.670;2023-03-19T05:01:17;91986.94;;;-2.71;77.90
44481;BME280;30184;42.018;23.670;2023-03-19T05:04:04;91993.56;;;-2.77;78.09
44481;BME280;30184;42.018;23.670;2023-03-19T05:06:36;91986.69;;;-2.66;78.11
44481;BME280;30184;42.018;23.670;2023-03-19T05:09:06;91994.00;;;-2.63;78.06
44481;BME280;30184;42.018;23.670;2023-03-19T05:11:36;91934.56;;;-2.98;78.08
44481;BME280;30184;42.018;23.670;2023-03-19T05:14:11;91990.22;;;-2.61;78.17
44481;BME280;30184;42.018;23.670;2023-03-19T05:16:59;91992.19;;;-2.58;78.04
44481;BME280;30184;42.018;23.670;2023-03-19T05:19:39;91997.28;;;-2.53;78.25
44481;BME280;30184;42.018;23.670;2023-03-19T05:22:09;91946.94;;;-2.90;78.11
44481;BME280;30184;42.018;23.670;2023-03-19T05:24:39;91997.47;;;-2.46;77.96
44481;BME280;30184;42.018;23.670;2023-03-19T05:27:08;92017.88;;;-2.50;77.98
44481;BME280;30184;42.018;23.670;2023-03-19T05:29:53;91983.41;;;-2.47;77.98
44481;BME280;30184;42.018;23.670;2023-03-19T05:32:43;91991.69;;;-2.36;77.83
44481;BME280;30184;42.018;23.670;2023-03-19T05:35:24;91963.75;;;-2.58;77.75
44481;BME280;30184;42.018;23.670;2023-03-19T05:37:54;91895.38;;;-2.89;78.07
44481;BME280;30184;42.018;23.670;2023-03-19T05:40:24;91905.53;;;-2.79;77.91
44481;BME280;30184;42.018;23.670;2023-03-19T05:42:54;91983.66;;;-2.24;78.07
44481;BME280;30184;42.018;23.670;2023-03-19T05:45:27;91984.50;;;-2.20;78.00
44481;BME280;30184;42.018;23.670;2023-03-19T05:48:01;91981.19;;;-2.17;77.94
44481;BME280;30184;42.018;23.670;2023-03-19T05:50:38;91989.25;;;-2.13;78.17
44481;BME280;30184;42.018;23.670;2023-03-19T05:53:19;91978.34;;;-2.08;78.14
44481;BME280;30184;42.018;23.670;2023-03-19T05:56:12;91972.00;;;-2.04;78.20
44481;BME280;30184;42.018;23.670;2023-03-19T05:58:55;91894.72;;;-2.42;78.30
44481;BME280;30184;42.018;23.670;2023-03-19T06:01:30;91973.91;;;-1.73;78.58
44481;BME280;30184;42.018;23.670;2023-03-19T06:04:00;91972.56;;;-1.51;78.42
44481;BME280;30184;42.018;23.670;2023-03-19T06:06:34;91974.56;;;-1.29;78.45
44481;BME280;30184;42.018;23.670;2023-03-19T06:09:03;91976.59;;;-1.06;78.24
44481;BME280;30184;42.018;23.670;2023-03-19T06:11:39;91971.75;;;-0.85;77.53
44481;BME280;30184;42.018;23.670;2023-03-19T06:14:28;91969.59;;;-0.60;77.23
44481;BME280;30184;42.018;23.670;2023-03-19T06:17:18;91968.94;;;-0.34;76.96
44481;BME280;30184;42.018;23.670;2023-03-19T06:19:48;91972.44;;;-0.11;76.35
44481;BME280;30184;42.018;23.670;2023-03-19T06:22:19;91971.34;;;0.13;75.38
44481;BME280;30184;42.018;23.670;2023-03-19T06:24:49;91973.28;;;0.35;74.88
44481;BME280;30184;42.018;23.670;2023-03-19T06:27:18;91974.75;;;0.55;73.30
44481;BME280;30184;42.018;23.670;2023-03-19T06:29:49;91975.06;;;0.77;72.52
44481;BME280;30184;42.018;23.670;2023-03-19T06:32:24;91982.63;;;0.97;71.54
44481;BME280;30184;42.018;23.670;2023-03-19T06:34:55;91975.28;;;1.17;70.35
44481;BME280;30184;42.018;23.670;2023-03-19T06:37:26;92011.06;;;1.35;68.69
44481;BME280;30184;42.018;23.670;2023-03-19T06:39:55;91992.16;;;1.51;67.52
44481;BME280;30184;42.018;23.670;2023-03-19T06:42:25;91977.47;;;1.68;66.84
44481;BME280;30184;42.018;23.670;2023-03-19T06:44:54;91987.16;;;1.76;65.98
44481;BME280;30184;42.018;23.670;2023-03-19T06:47:23;91990.03;;;1.94;65.98
44481;BME280;30184;42.018;23.670;2023-03-19T06:49:53;92046.81;;;2.13;65.30
44481;BME280;30184;42.018;23.670;2023-03-19T06:52:23;91989.22;;;2.27;63.96
44481;BME280;30184;42.018;23.670;2023-03-19T06:54:54;91986.34;;;2.46;62.33
44481;BME280;30184;42.018;23.670;2023-03-19T06:57:24;91982.66;;;2.61;61.26
44481;BME280;30184;42.018;23.670;2023-03-19T06:59:53;91933.09;;;2.37;60.88
44481;BME280;30184;42.018;23.670;2023-03-19T07:02:23;91985.94;;;2.88;60.42
44481;BME280;30184;42.018;23.670;2023-03-19T07:04:52;91974.25;;;3.10;60.04
44481;BME280;30184;42.018;23.670;2023-03-19T07:07:22;91964.44;;;3.35;59.77
44481;BME280;30184;42.018;23.670;2023-03-19T07:09:51;91966.88;;;3.58;60.11
44481;BME280;30184;42.018;23.670;2023-03-19T07:12:21;91969.28;;;3.81;59.43
44481;BME280;30184;42.018;23.670;2023-03-19T07:14:54;91964.41;;;4.04;58.89
44481;BME280;30184;42.018;23.670;2023-03-19T07:17:24;91948.69;;;4.13;57.68
44481;BME280;30184;42.018;23.670;2023-03-19T07:19:53;91936.06;;;4.32;56.69
44481;BME280;30184;42.018;23.670;2023-03-19T07:22:23;91800.94;;;3.67;55.29
44481;BME280;30184;42.018;23.670;2023-03-19T07:24:52;91925.75;;;4.62;54.33
44481;BME280;30184;42.018;23.670;2023-03-19T07:27:23;91905.00;;;4.66;54.27
44481;BME280;30184;42.018;23.670;2023-03-19T07:29:52;91947.25;;;5.12;53.76
44481;BME280;30184;42.018;23.670;2023-03-19T07:32:22;91943.78;;;5.15;53.73
44481;BME280;30184;42.018;23.670;2023-03-19T07:34:51;91937.56;;;5.50;53.36
44481;BME280;30184;42.018;23.670;2023-03-19T07:37:20;91921.03;;;5.48;51.77
44481;BME280;30184;42.018;23.670;2023-03-19T07:39:50;91832.72;;;5.14;51.85
44481;BME280;30184;42.018;23.670;2023-03-19T07:42:19;91926.28;;;5.97;51.55
44481;BME280;30184;42.018;23.670;2023-03-19T07:44:49;91929.28;;;6.21;50.65
44481;BME280;30184;42.018;23.670;2023-03-19T07:47:22;91873.91;;;6.06;49.91
44481;BME280;30184;42.018;23.670;2023-03-19T07:49:56;91937.59;;;6.48;49.63
44481;BME280;30184;42.018;23.670;2023-03-19T07:52:25;91921.25;;;6.76;49.66
44481;BME280;30184;42.018;23.670;2023-03-19T07:54:54;91921.81;;;6.98;49.02
44481;BME280;30184;42.018;23.670;2023-03-19T07:57:23;91914.34;;;7.16;49.03
44481;BME280;30184;42.018;23.670;2023-03-19T07:59:55;91907.25;;;7.33;50.35
44481;BME280;30184;42.018;23.670;2023-03-19T08:02:24;91914.44;;;7.50;49.12
44481;BME280;30184;42.018;23.670;2023-03-19T08:04:54;91910.31;;;7.72;48.47
44481;BME280;30184;42.018;23.670;2023-03-19T08:07:24;91913.31;;;7.81;47.25
44481;BME280;30184;42.018;23.670;2023-03-19T08:09:53;91840.94;;;7.32;47.40
44481;BME280;30184;42.018;23.670;2023-03-19T08:12:23;91914.41;;;8.18;46.88
44481;BME280;30184;42.018;23.670;2023-03-19T08:14:54;91940.53;;;8.28;46.87
44481;BME280;30184;42.018;23.670;2023-03-19T08:17:25;91948.25;;;8.33;46.64
44481;BME280;30184;42.018;23.670;2023-03-19T08:19:54;91909.75;;;8.52;46.59
44481;BME280;30184;42.018;23.670;2023-03-19T08:22:24;91909.91;;;8.69;47.29
44481;BME280;30184;42.018;23.670;2023-03-19T08:24:53;91851.34;;;8.55;46.00
44481;BME280;30184;42.018;23.670;2023-03-19T08:27:23;91885.13;;;8.97;45.85
44481;BME280;30184;42.018;23.670;2023-03-19T08:29:55;91831.56;;;8.85;45.94
44481;BME280;30184;42.018;23.670;2023-03-19T08:32:24;91895.00;;;9.30;45.50
44481;BME280;30184;42.018;23.670;2023-03-19T08:34:53;91886.34;;;9.39;44.71
44481;BME280;30184;42.018;23.670;2023-03-19T08:37:23;91879.03;;;9.36;43.99
44481;BME280;30184;42.018;23.670;2023-03-19T08:39:52;91887.81;;;9.44;44.20
44481;BME280;30184;42.018;23.670;2023-03-19T10:33:14;91645.56;;;13.59;35.03
44481;BME280;30184;42.018;23.670;2023-03-19T10:35:56;91719.28;;;14.30;34.40
44481;BME280;30184;42.018;23.670;2023-03-19T10:38:26;91731.66;;;14.43;34.62
44481;BME280;30184;42.018;23.670;2023-03-19T10:41:04;91613.41;;;13.85;34.89
44481;BME280;30184;42.018;23.670;2023-03-19T10:43:40;91708.31;;;14.51;35.13
44481;BME280;30184;42.018;23.670;2023-03-19T10:46:11;91713.06;;;14.69;34.76
44481;BME280;30184;42.018;23.670;2023-03-19T10:48:44;91734.31;;;14.74;35.20
44481;BME280;30184;42.018;23.670;2023-03-19T10:51:15;91707.03;;;14.83;35.14
44481;BME280;30184;42.018;23.670;2023-03-19T10:53:44;91702.63;;;14.86;34.18
44481;BME280;30184;42.018;23.670;2023-03-19T10:56:19;91701.72;;;14.80;34.75
44481;BME280;30184;42.018;23.670;2023-03-19T10:58:56;91692.16;;;14.84;34.15
44481;BME280;30184;42.018;23.670;2023-03-19T11:01:27;91663.78;;;14.73;34.92
44481;BME280;30184;42.018;23.670;2023-03-19T11:04:02;91669.72;;;14.89;34.18
44481;BME280;30184;42.018;23.670;2023-03-19T11:06:39;91645.56;;;14.88;33.75
44481;BME280;30184;42.018;23.670;2023-03-19T11:09:16;91679.00;;;15.01;33.64
44481;BME280;30184;42.018;23.670;2023-03-19T11:11:48;91669.41;;;15.06;34.58
44481;BME280;30184;42.018;23.670;2023-03-19T11:14:23;91665.63;;;15.12;33.99
44481;BME280;30184;42.018;23.670;2023-03-19T11:16:57;91663.06;;;15.18;33.98
44481;BME280;30184;42.018;23.670;2023-03-19T11:19:32;91649.53;;;15.05;33.98
44481;BME280;30184;42.018;23.670;2023-03-19T11:22:08;91604.72;;;14.93;34.19
44481;BME280;30184;42.018;23.670;2023-03-19T11:24:39;91660.31;;;15.45;33.34
44481;BME280;30184;42.018;23.670;2023-03-19T11:27:08;91651.50;;;15.41;33.21
44481;BME280;30184;42.018;23.670;2023-03-19T11:29:40;91654.97;;;15.51;33.50
44481;BME280;30184;42.018;23.670;2023-03-19T11:32:19;91646.66;;;15.54;33.26
44481;BME280;30184;42.018;23.670;2023-03-19T11:35:00;91600.63;;;15.25;33.42
44481;BME280;30184;42.018;23.670;2023-03-19T11:37:44;91642.53;;;15.59;33.38
44481;BME280;30184;42.018;23.670;2023-03-19T11:40:23;91633.25;;;15.65;33.30
44481;BME280;30184;42.018;23.670;2023-03-19T11:43:06;91633.41;;;15.71;33.44
44481;BME280;30184;42.018;23.670;2023-03-19T11:45:48;91630.97;;;15.73;33.16
44481;BME280;30184;42.018;23.670;2023-03-19T11:48:34;91621.53;;;15.74;33.33
44481;BME280;30184;42.018;23.670;2023-03-19T11:51:16;91632.91;;;15.82;33.32
44481;BME280;30184;42.018;23.670;2023-03-19T11:53:55;91616.31;;;15.85;33.33
44481;BME280;30184;42.018;23.670;2023-03-19T11:56:31;91422.94;;;14.74;33.55
44481;BME280;30184;42.018;23.670;2023-03-19T11:59:33;91602.72;;;16.09;33.17
44481;BME280;30184;42.018;23.670;2023-03-19T12:02:24;91602.53;;;16.13;33.16
44481;BME280;30184;42.018;23.670;2023-03-19T12:05:15;91596.91;;;16.16;32.85
44481;BME280;30184;42.018;23.670;2023-03-19T12:10:50;91609.56;;;16.04;33.10
44481;BME280;30184;42.018;23.670;2023-03-19T12:13:32;91586.25;;;16.18;33.11
44481;BME280;30184;42.018;23.670;2023-03-19T12:16:13;91561.81;;;16.05;32.61
44481;BME280;30184;42.018;23.670;2023-03-19T12:18:55;91583.56;;;16.33;32.78
44481;BME280;30184;42.018;23.670;2023-03-19T12:21:39;91580.50;;;16.40;32.57
44481;BME280;30184;42.018;23.670;2023-03-19T12:24:20;91587.97;;;16.39;32.65
44481;BME280;30184;42.018;23.670;2023-03-19T12:26:59;91583.00;;;16.53;32.68
44481;BME280;30184;42.018;23.670;2023-03-19T12:29:39;91576.41;;;16.59;32.11
44481;BME280;30184;42.018;23.670;2023-03-19T12:32:27;91576.47;;;16.50;31.79
44481;BME280;30184;42.018;23.670;2023-03-19T12:35:01;91626.69;;;16.56;31.73
44481;BME280;30184;42.018;23.670;2023-03-19T12:37:36;91572.03;;;16.53;32.18
44481;BME280;30184;42.018;23.670;2023-03-19T12:40:21;91561.06;;;16.62;32.92
44481;BME280;30184;42.018;23.670;2023-03-19T12:42:57;91553.72;;;16.68;32.38
44481;BME280;30184;42.018;23.670;2023-03-19T12:45:29;91568.47;;;16.70;32.34
44481;BME280;30184;42.018;23.670;2023-03-19T12:48:04;91497.09;;;16.41;32.62
44481;BME280;30184;42.018;23.670;2023-03-19T12:50:38;91552.84;;;16.86;32.53
44481;BME280;30184;42.018;23.670;2023-03-19T12:53:16;91550.56;;;16.84;32.39
44481;BME280;30184;42.018;23.670;2023-03-19T12:55:53;91525.00;;;16.78;31.96
44481;BME280;30184;42.018;23.670;2023-03-19T12:58:35;91506.56;;;16.64;32.24
44481;BME280;30184;42.018;23.670;2023-03-19T13:01:08;91541.88;;;16.86;31.91
44481;BME280;30184;42.018;23.670;2023-03-19T13:03:43;91533.34;;;16.84;32.51
44481;BME280;30184;42.018;23.670;2023-03-19T13:06:21;91531.94;;;16.88;32.31
44481;BME280;30184;42.018;23.670;2023-03-19T13:08:56;91543.38;;;16.87;32.24
44481;BME280;30184;42.018;23.670;2023-03-19T13:11:34;91525.44;;;16.86;32.33
44481;BME280;30184;42.018;23.670;2023-03-19T13:14:15;91531.66;;;16.86;32.54
44481;BME280;30184;42.018;23.670;2023-03-19T13:16:51;91451.78;;;16.40;31.89
44481;BME280;30184;42.018;23.670;2023-03-19T13:19:29;91520.50;;;16.90;32.64
44481;BME280;30184;42.018;23.670;2023-03-19T13:22:04;91520.13;;;16.97;32.97
44481;BME280;30184;42.018;23.670;2023-03-19T13:24:38;91455.59;;;16.57;32.94
44481;BME280;30184;42.018;23.670;2023-03-19T13:27:14;91499.72;;;16.98;31.41
44481;BME280;30184;42.018;23.670;2023-03-19T13:30:06;91501.81;;;17.03;32.02
44481;BME280;30184;42.018;23.670;2023-03-19T13:32:46;91506.84;;;17.04;32.15
44481;BME280;30184;42.018;23.670;2023-03-19T13:35:26;91507.84;;;17.07;31.68
44481;BME280;30184;42.018;23.670;2023-03-19T13:37:58;91504.75;;;17.14;32.08
44481;BME280;30184;42.018;23.670;2023-03-19T13:40:43;91497.47;;;17.11;31.77
44481;BME280;30184;42.018;23.670;2023-03-19T13:43:40;91501.25;;;17.13;32.05
44481;BME280;30184;42.018;23.670;2023-03-19T13:46:37;91498.31;;;17.17;32.23
44481;BME280;30184;42.018;23.670;2023-03-19T13:49:27;91499.28;;;17.14;32.56
44481;BME280;30184;42.018;23.670;2023-03-19T13:55:31;91493.38;;;17.06;31.97
44481;BME280;30184;42.018;23.670;2023-03-19T13:58:15;91501.53;;;17.01;33.04
44481;BME280;30184;42.018;23.670;2023-03-19T14:01:37;91485.75;;;16.96;32.06
44481;BME280;30184;42.018;23.670;2023-03-19T14:04:16;91484.16;;;17.04;32.71
44481;BME280;30184;42.018;23.670;2023-03-19T14:06:47;91483.94;;;17.07;32.07
44481;BME280;30184;42.018;23.670;2023-03-19T14:09:31;91482.81;;;17.14;32.83
44481;BME280;30184;42.018;23.670;2023-03-19T14:12:09;91493.78;;;17.14;31.99
44481;BME280;30184;42.018;23.670;2023-03-19T14:14:40;91479.88;;;17.17;31.92
44481;BME280;30184;42.018;23.670;2023-03-19T14:17:15;91481.09;;;17.16;31.63
44481;BME280;30184;42.018;23.670;2023-03-19T14:19:48;91484.69;;;17.08;31.98
44481;BME280;30184;42.018;23.670;2023-03-19T14:22:21;91483.47;;;17.09;31.93
44481;BME280;30184;42.018;23.670;2023-03-19T14:25:10;91464.00;;;16.92;32.13
44481;BME280;30184;42.018;23.670;2023-03-19T14:27:44;91455.69;;;16.87;32.34
44481;BME280;30184;42.018;23.670;2023-03-19T14:30:25;91491.41;;;17.07;32.50
44481;BME280;30184;42.018;23.670;2023-03-19T14:32:58;91494.34;;;17.03;32.25
44481;BME280;30184;42.018;23.670;2023-03-19T14:35:35;91450.53;;;16.65;32.03
44481;BME280;30184;42.018;23.670;2023-03-19T14:38:10;91471.25;;;16.66;32.02
44481;BME280;30184;42.018;23.670;2023-03-19T14:40:44;91498.03;;;16.86;32.37
44481;BME280;30184;42.018;23.670;2023-03-19T14:43:22;91497.44;;;16.82;32.26
44481;BME280;30184;42.018;23.670;2023-03-19T14:46:01;91480.59;;;16.74;32.26
44481;BME280;30184;42.018;23.670;2023-03-19T14:51:59;91493.00;;;16.84;32.38
44481;BME280;30184;42.018;23.670;2023-03-19T14:54:30;91496.50;;;16.85;32.58
44481;BME280;30184;42.018;23.670;2023-03-19T14:57:11;91502.44;;;16.83;31.69
44481;BME280;30184;42.018;23.670;2023-03-19T14:59:44;91508.09;;;16.79;32.70
44481;BME280;30184;42.018;23.670;2023-03-19T15:02:21;91510.00;;;16.73;32.21
44481;BME280;30184;42.018;23.670;2023-03-19T15:04:57;91507.63;;;16.66;32.38
44481;BME280;30184;42.018;23.670;2023-03-19T15:07:30;91510.66;;;16.59;32.52
44481;BME280;30184;42.018;23.670;2023-03-19T15:10:01;91494.66;;;16.43;32.49
44481;BME280;30184;42.018;23.670;2023-03-19T15:15:41;91509.06;;;16.29;32.89
44481;BME280;30184;42.018;23.670;2023-03-19T15:18:17;91550.00;;;16.23;32.86
44481;BME280;30184;42.018;23.670;2023-03-19T15:20:50;91517.97;;;16.15;32.93
44481;BME280;30184;42.018;23.670;2023-03-19T15:23:24;91559.69;;;16.10;33.28
44481;BME280;30184;42.018;23.670;2023-03-19T15:25:56;91533.41;;;16.03;33.58
44481;BME280;30184;42.018;23.670;2023-03-19T15:28:29;91542.69;;;15.96;33.67
44481;BME280;30184;42.018;23.670;2023-03-19T15:31:01;91534.38;;;15.91;34.18
44481;BME280;30184;42.018;23.670;2023-03-19T15:33:51;91511.25;;;15.59;33.41